sensor_id;sensor_type;location;lat;lon;timestamp;P1;durP1;ratioP1;P2;durP2;ratioP2
82618;SDS011;72286;12.138;-68.936;2023-09-07T00:00:39;14.70;;;4.00;;
82618;SDS011;72286;12.138;-68.936;2023-09-07T00:04:17;12.90;;;4.00;;
82618;SDS011;72286;12.138;-68.936;2023-09-07T00:07:54;13.50;;;4.00;;
82618;SDS011;72286;12.138;-68.936;2023-09-07T00:11:52;12.80;;;3.80;;
82618;SDS011;72286;12.138;-68.936;2023-09-07T00:15:09;15.00;;;4.70;;
82618;SDS011;72286;12.138;-68.936;2023-09-07T00:18:47;11.80;;;4.20;;
82618;SDS011;72286;12.138;-68.936;2023-09-07T00:22:24;15.30;;;4.00;;
82618;SDS011;72286;12.138;-68.936;2023-09-07T00:26:03;15.30;;;4.50;;
82618;SDS011;72286;12.138;-68.936;2023-09-07T00:29:59;12.10;;;4.60;;
82618;SDS011;72286;12.138;-68.936;2023-09-07T00:33:18;14.40;;;4.10;;
82618;SDS011;72286;12.138;-68.936;2023-09-07T00:36:56;10.00;;;4.40;;
82618;SDS011;72286;12.138;-68.936;2023-09-07T00:40:34;16.00;;;4.30;;
82618;SDS011;72286;12.138;-68.936;2023-09-07T00:44:31;11.80;;;4.00;;
82618;SDS011;72286;12.138;-68.936;2023-09-07T00:47:49;14.30;;;4.50;;
82618;SDS011;72286;12.138;-68.936;2023-09-07T00:51:26;12.80;;;3.80;;
82618;SDS011;72286;12.138;-68.936;2023-09-07T00:55:04;14.60;;;4.40;;
82618;SDS011;72286;12.138;-68.936;2023-09-07T00:58:42;17.50;;;4.40;;
82618;SDS011;72286;12.138;-68.936;2023-09-07T01:02:20;12.70;;;4.30;;
82618;SDS011;72286;12.138;-68.936;2023-09-07T01:05:58;9.60;;;4.50;;
82618;SDS011;72286;12.138;-68.936;2023-09-07T01:09:42;15.30;;;4.40;;
82618;SDS011;72286;12.138;-68.936;2023-09-07T01:13:20;13.70;;;4.00;;
82618;SDS011;72286;12.138;-68.936;2023-09-07T01:16:59;12.60;;;4.30;;
82618;SDS011;72286;12.138;-68.936;2023-09-07T01:20:36;10.40;;;3.80;;
82618;SDS011;72286;12.138;-68.936;2023-09-07T01:24:15;12.90;;;3.30;;
82618;SDS011;72286;12.138;-68.936;2023-09-07T01:27:53;12.20;;;4.40;;
82618;SDS011;72286;12.138;-68.936;2023-09-07T01:31:34;11.80;;;4.30;;
82618;SDS011;72286;12.138;-68.936;2023-09-07T01:35:14;10.20;;;3.90;;
82618;SDS011;72286;12.138;-68.936;2023-09-07T01:38:52;12.40;;;4.10;;
82618;SDS011;72286;12.138;-68.936;2023-09-07T01:42:30;12.80;;;4.30;;
82618;SDS011;72286;12.138;-68.936;2023-09-07T01:46:08;12.90;;;4.50;;
82618;SDS011;72286;12.138;-68.936;2023-09-07T01:49:45;11.70;;;4.10;;
82618;SDS011;72286;12.138;-68.936;2023-09-07T01:53:23;11.80;;;3.70;;
82618;SDS011;72286;12.138;-68.936;2023-09-07T01:57:00;11.70;;;4.80;;
82618;SDS011;72286;12.138;-68.936;2023-09-07T02:00:39;16.60;;;4.40;;
82618;SDS011;72286;12.138;-68.936;2023-09-07T02:04:16;12.50;;;3.60;;
82618;SDS011;72286;12.138;-68.936;2023-09-07T02:07:54;12.40;;;4.00;;
82618;SDS011;72286;12.138;-68.936;2023-09-07T02:11:31;10.30;;;3.80;;
82618;SDS011;72286;12.138;-68.936;2023-09-07T02:15:09;11.00;;;4.50;;
82618;SDS011;72286;12.138;-68.936;2023-09-07T02:18:48;10.00;;;4.20;;
82618;SDS011;72286;12.138;-68.936;2023-09-07T02:22:26;13.40;;;4.40;;
82618;SDS011;72286;12.138;-68.936;2023-09-07T02:26:03;11.20;;;4.00;;
82618;SDS011;72286;12.138;-68.936;2023-09-07T02:34:32;12.20;;;4.80;;
82618;SDS011;72286;12.138;-68.936;2023-09-07T02:38:12;10.90;;;4.10;;
82618;SDS011;72286;12.138;-68.936;2023-09-07T02:42:09;13.30;;;4.60;;
82618;SDS011;72286;12.138;-68.936;2023-09-07T02:45:27;13.80;;;4.60;;
82618;SDS011;72286;12.138;-68.936;2023-09-07T02:49:05;14.90;;;5.40;;
82618;SDS011;72286;12.138;-68.936;2023-09-07T02:52:43;12.00;;;4.60;;
82618;SDS011;72286;12.138;-68.936;2023-09-07T02:56:20;15.30;;;4.80;;
82618;SDS011;72286;12.138;-68.936;2023-09-07T02:59:58;15.40;;;5.20;;
82618;SDS011;72286;12.138;-68.936;2023-09-07T03:03:35;11.70;;;5.00;;
82618;SDS011;72286;12.138;-68.936;2023-09-07T03:07:13;12.80;;;4.80;;
82618;SDS011;72286;12.138;-68.936;2023-09-07T03:10:51;10.50;;;4.50;;
82618;SDS011;72286;12.138;-68.936;2023-09-07T03:14:29;10.30;;;4.60;;
82618;SDS011;72286;12.138;-68.936;2023-09-07T03:18:06;11.60;;;4.40;;
82618;SDS011;72286;12.138;-68.936;2023-09-07T03:21:44;13.30;;;4.80;;
82618;SDS011;72286;12.138;-68.936;2023-09-07T03:25:21;16.00;;;5.90;;
82618;SDS011;72286;12.138;-68.936;2023-09-07T03:29:00;11.50;;;4.30;;
82618;SDS011;72286;12.138;-68.936;2023-09-07T03:32:37;11.00;;;4.20;;
82618;SDS011;72286;12.138;-68.936;2023-09-07T03:36:15;10.60;;;4.10;;
82618;SDS011;72286;12.138;-68.936;2023-09-07T03:39:52;8.80;;;3.70;;
82618;SDS011;72286;12.138;-68.936;2023-09-07T03:43:30;11.30;;;4.50;;
82618;SDS011;72286;12.138;-68.936;2023-09-07T03:47:07;12.90;;;4.80;;
82618;SDS011;72286;12.138;-68.936;2023-09-07T03:50:46;12.20;;;4.80;;
82618;SDS011;72286;12.138;-68.936;2023-09-07T03:54:23;10.80;;;4.20;;
82618;SDS011;72286;12.138;-68.936;2023-09-07T03:58:01;13.10;;;4.20;;
82618;SDS011;72286;12.138;-68.936;2023-09-07T04:01:39;14.30;;;4.90;;
82618;SDS011;72286;12.138;-68.936;2023-09-07T04:05:17;11.20;;;4.40;;
82618;SDS011;72286;12.138;-68.936;2023-09-07T04:08:54;12.20;;;4.80;;
82618;SDS011;72286;12.138;-68.936;2023-09-07T04:12:32;9.70;;;4.40;;
82618;SDS011;72286;12.138;-68.936;2023-09-07T04:16:09;14.40;;;4.80;;
82618;SDS011;72286;12.138;-68.936;2023-09-07T04:19:47;15.30;;;4.30;;
82618;SDS011;72286;12.138;-68.936;2023-09-07T04:23:25;12.50;;;4.80;;
82618;SDS011;72286;12.138;-68.936;2023-09-07T04:27:23;10.00;;;4.50;;
82618;SDS011;72286;12.138;-68.936;2023-09-07T04:30:41;16.70;;;5.70;;
82618;SDS011;72286;12.138;-68.936;2023-09-07T04:34:20;12.40;;;4.70;;
82618;SDS011;72286;12.138;-68.936;2023-09-07T04:37:57;13.90;;;4.70;;
82618;SDS011;72286;12.138;-68.936;2023-09-07T04:41:36;11.90;;;4.70;;
82618;SDS011;72286;12.138;-68.936;2023-09-07T04:45:13;11.80;;;4.40;;
82618;SDS011;72286;12.138;-68.936;2023-09-07T04:48:51;12.30;;;4.50;;
82618;SDS011;72286;12.138;-68.936;2023-09-07T04:52:29;11.30;;;4.60;;
82618;SDS011;72286;12.138;-68.936;2023-09-07T04:56:07;9.10;;;4.20;;
82618;SDS011;72286;12.138;-68.936;2023-09-07T04:59:44;13.00;;;4.90;;
82618;SDS011;72286;12.138;-68.936;2023-09-07T05:03:22;12.10;;;4.90;;
82618;SDS011;72286;12.138;-68.936;2023-09-07T05:07:02;11.60;;;4.90;;
82618;SDS011;72286;12.138;-68.936;2023-09-07T05:10:39;16.00;;;5.60;;
82618;SDS011;72286;12.138;-68.936;2023-09-07T05:14:16;11.20;;;4.50;;
82618;SDS011;72286;12.138;-68.936;2023-09-07T05:17:54;13.80;;;5.40;;
82618;SDS011;72286;12.138;-68.936;2023-09-07T05:21:31;12.50;;;5.20;;
82618;SDS011;72286;12.138;-68.936;2023-09-07T05:25:10;14.40;;;5.40;;
82618;SDS011;72286;12.138;-68.936;2023-09-07T05:28:46;13.90;;;4.70;;
82618;SDS011;72286;12.138;-68.936;2023-09-07T05:32:25;11.60;;;4.30;;
82618;SDS011;72286;12.138;-68.936;2023-09-07T05:36:02;12.50;;;4.70;;
82618;SDS011;72286;12.138;-68.936;2023-09-07T05:39:40;11.10;;;4.90;;
82618;SDS011;72286;12.138;-68.936;2023-09-07T05:43:17;13.20;;;5.20;;
82618;SDS011;72286;12.138;-68.936;2023-09-07T05:46:55;15.90;;;4.60;;
82618;SDS011;72286;12.138;-68.936;2023-09-07T05:50:34;11.60;;;4.70;;
82618;SDS011;72286;12.138;-68.936;2023-09-07T05:54:12;14.40;;;5.00;;
82618;SDS011;72286;12.138;-68.936;2023-09-07T05:57:49;11.50;;;4.80;;
82618;SDS011;72286;12.138;-68.936;2023-09-07T06:01:27;10.20;;;5.60;;
82618;SDS011;72286;12.138;-68.936;2023-09-07T06:05:22;14.10;;;5.00;;
82618;SDS011;72286;12.138;-68.936;2023-09-07T06:09:01;11.30;;;5.00;;
82618;SDS011;72286;12.138;-68.936;2023-09-07T06:12:39;13.50;;;5.30;;
82618;SDS011;72286;12.138;-68.936;2023-09-07T06:16:34;12.00;;;4.70;;
82618;SDS011;72286;12.138;-68.936;2023-09-07T06:20:12;11.60;;;5.00;;
82618;SDS011;72286;12.138;-68.936;2023-09-07T06:23:50;11.50;;;4.50;;
82618;SDS011;72286;12.138;-68.936;2023-09-07T06:27:27;13.20;;;5.60;;
82618;SDS011;72286;12.138;-68.936;2023-09-07T06:31:05;12.90;;;5.40;;
82618;SDS011;72286;12.138;-68.936;2023-09-07T06:34:42;15.40;;;5.30;;
82618;SDS011;72286;12.138;-68.936;2023-09-07T06:38:21;10.70;;;4.60;;
82618;SDS011;72286;12.138;-68.936;2023-09-07T06:41:58;9.10;;;4.90;;
82618;SDS011;72286;12.138;-68.936;2023-09-07T06:45:36;49.00;;;8.70;;
82618;SDS011;72286;12.138;-68.936;2023-09-07T06:49:13;17.00;;;5.70;;
82618;SDS011;72286;12.138;-68.936;2023-09-07T06:52:52;13.10;;;5.10;;
82618;SDS011;72286;12.138;-68.936;2023-09-07T06:56:29;12.70;;;4.80;;
82618;SDS011;72286;12.138;-68.936;2023-09-07T07:00:08;12.90;;;4.90;;
82618;SDS011;72286;12.138;-68.936;2023-09-07T07:03:46;16.10;;;5.20;;
82618;SDS011;72286;12.138;-68.936;2023-09-07T07:07:24;12.60;;;5.20;;
82618;SDS011;72286;12.138;-68.936;2023-09-07T07:11:01;13.80;;;5.40;;
82618;SDS011;72286;12.138;-68.936;2023-09-07T07:14:39;11.80;;;5.20;;
82618;SDS011;72286;12.138;-68.936;2023-09-07T07:18:16;12.20;;;4.90;;
82618;SDS011;72286;12.138;-68.936;2023-09-07T07:21:55;13.20;;;5.80;;
82618;SDS011;72286;12.138;-68.936;2023-09-07T07:25:32;14.90;;;5.40;;
82618;SDS011;72286;12.138;-68.936;2023-09-07T07:29:10;14.90;;;5.80;;
82618;SDS011;72286;12.138;-68.936;2023-09-07T07:32:47;15.70;;;5.60;;
82618;SDS011;72286;12.138;-68.936;2023-09-07T07:36:27;13.50;;;4.80;;
82618;SDS011;72286;12.138;-68.936;2023-09-07T07:40:04;9.70;;;4.50;;
82618;SDS011;72286;12.138;-68.936;2023-09-07T07:43:42;12.00;;;5.20;;
82618;SDS011;72286;12.138;-68.936;2023-09-07T07:47:19;15.80;;;5.40;;
82618;SDS011;72286;12.138;-68.936;2023-09-07T07:51:01;10.20;;;4.90;;
82618;SDS011;72286;12.138;-68.936;2023-09-07T07:54:40;11.10;;;5.00;;
82618;SDS011;72286;12.138;-68.936;2023-09-07T07:58:18;14.30;;;6.00;;
82618;SDS011;72286;12.138;-68.936;2023-09-07T08:01:55;12.80;;;5.00;;
82618;SDS011;72286;12.138;-68.936;2023-09-07T08:05:34;9.60;;;4.80;;
82618;SDS011;72286;12.138;-68.936;2023-09-07T08:09:31;9.80;;;5.40;;
82618;SDS011;72286;12.138;-68.936;2023-09-07T08:12:53;13.40;;;5.20;;
82618;SDS011;72286;12.138;-68.936;2023-09-07T08:16:32;12.50;;;5.50;;
82618;SDS011;72286;12.138;-68.936;2023-09-07T08:20:11;9.00;;;4.80;;
82618;SDS011;72286;12.138;-68.936;2023-09-07T08:23:48;16.30;;;4.90;;
82618;SDS011;72286;12.138;-68.936;2023-09-07T08:27:26;12.90;;;5.30;;
82618;SDS011;72286;12.138;-68.936;2023-09-07T08:31:03;12.80;;;6.10;;
82618;SDS011;72286;12.138;-68.936;2023-09-07T08:34:41;13.70;;;5.40;;
82618;SDS011;72286;12.138;-68.936;2023-09-07T08:38:18;14.00;;;5.80;;
82618;SDS011;72286;12.138;-68.936;2023-09-07T08:41:58;11.10;;;5.90;;
82618;SDS011;72286;12.138;-68.936;2023-09-07T08:45:37;14.70;;;5.50;;
82618;SDS011;72286;12.138;-68.936;2023-09-07T08:49:24;10.80;;;5.30;;
82618;SDS011;72286;12.138;-68.936;2023-09-07T08:53:01;11.70;;;5.30;;
82618;SDS011;72286;12.138;-68.936;2023-09-07T08:56:40;11.50;;;5.80;;
82618;SDS011;72286;12.138;-68.936;2023-09-07T09:00:17;12.80;;;5.70;;
82618;SDS011;72286;12.138;-68.936;2023-09-07T09:03:56;13.10;;;5.40;;
82618;SDS011;72286;12.138;-68.936;2023-09-07T09:07:33;11.30;;;5.40;;
82618;SDS011;72286;12.138;-68.936;2023-09-07T09:11:11;11.10;;;5.50;;
82618;SDS011;72286;12.138;-68.936;2023-09-07T09:14:48;10.40;;;5.40;;
82618;SDS011;72286;12.138;-68.936;2023-09-07T09:18:27;9.30;;;5.00;;
82618;SDS011;72286;12.138;-68.936;2023-09-07T09:22:04;10.80;;;5.30;;
82618;SDS011;72286;12.138;-68.936;2023-09-07T09:25:42;9.40;;;4.90;;
82618;SDS011;72286;12.138;-68.936;2023-09-07T09:29:22;17.90;;;6.40;;
82618;SDS011;72286;12.138;-68.936;2023-09-07T09:32:59;15.30;;;6.00;;
82618;SDS011;72286;12.138;-68.936;2023-09-07T09:36:37;11.30;;;5.00;;
82618;SDS011;72286;12.138;-68.936;2023-09-07T09:40:17;13.40;;;6.00;;
82618;SDS011;72286;12.138;-68.936;2023-09-07T09:43:54;11.40;;;5.20;;
82618;SDS011;72286;12.138;-68.936;2023-09-07T09:47:32;11.80;;;5.90;;
82618;SDS011;72286;12.138;-68.936;2023-09-07T09:51:14;13.50;;;5.50;;
82618;SDS011;72286;12.138;-68.936;2023-09-07T09:54:52;14.00;;;6.40;;
82618;SDS011;72286;12.138;-68.936;2023-09-07T09:58:30;14.70;;;5.90;;
82618;SDS011;72286;12.138;-68.936;2023-09-07T10:02:09;12.60;;;5.70;;
82618;SDS011;72286;12.138;-68.936;2023-09-07T10:05:50;19.30;;;5.80;;
82618;SDS011;72286;12.138;-68.936;2023-09-07T10:09:31;10.80;;;5.00;;
82618;SDS011;72286;12.138;-68.936;2023-09-07T10:13:08;10.90;;;6.20;;
82618;SDS011;72286;12.138;-68.936;2023-09-07T10:16:48;10.20;;;5.90;;
82618;SDS011;72286;12.138;-68.936;2023-09-07T10:24:33;14.40;;;6.20;;
82618;SDS011;72286;12.138;-68.936;2023-09-07T10:28:25;13.60;;;5.40;;
82618;SDS011;72286;12.138;-68.936;2023-09-07T10:32:05;14.50;;;5.90;;
82618;SDS011;72286;12.138;-68.936;2023-09-07T10:35:42;12.70;;;5.20;;
82618;SDS011;72286;12.138;-68.936;2023-09-07T10:39:20;14.90;;;5.60;;
82618;SDS011;72286;12.138;-68.936;2023-09-07T10:43:01;14.80;;;5.60;;
82618;SDS011;72286;12.138;-68.936;2023-09-07T10:46:40;18.10;;;6.50;;
82618;SDS011;72286;12.138;-68.936;2023-09-07T10:50:17;11.70;;;5.50;;
82618;SDS011;72286;12.138;-68.936;2023-09-07T10:53:55;16.20;;;6.30;;
82618;SDS011;72286;12.138;-68.936;2023-09-07T10:57:32;11.80;;;6.10;;
82618;SDS011;72286;12.138;-68.936;2023-09-07T11:01:19;14.40;;;6.00;;
82618;SDS011;72286;12.138;-68.936;2023-09-07T11:04:56;12.70;;;5.90;;
82618;SDS011;72286;12.138;-68.936;2023-09-07T11:08:34;12.50;;;5.80;;
82618;SDS011;72286;12.138;-68.936;2023-09-07T11:12:14;17.10;;;7.20;;
82618;SDS011;72286;12.138;-68.936;2023-09-07T11:15:57;11.20;;;5.50;;
82618;SDS011;72286;12.138;-68.936;2023-09-07T11:19:35;14.30;;;7.00;;
82618;SDS011;72286;12.138;-68.936;2023-09-07T11:23:13;13.30;;;5.90;;
82618;SDS011;72286;12.138;-68.936;2023-09-07T11:26:50;15.30;;;6.60;;
82618;SDS011;72286;12.138;-68.936;2023-09-07T11:30:29;17.60;;;6.90;;
82618;SDS011;72286;12.138;-68.936;2023-09-07T11:34:08;15.70;;;5.90;;
82618;SDS011;72286;12.138;-68.936;2023-09-07T11:37:51;14.40;;;6.10;;
82618;SDS011;72286;12.138;-68.936;2023-09-07T11:41:28;13.70;;;6.20;;
82618;SDS011;72286;12.138;-68.936;2023-09-07T11:45:07;15.70;;;7.40;;
82618;SDS011;72286;12.138;-68.936;2023-09-07T11:48:44;18.40;;;6.70;;
82618;SDS011;72286;12.138;-68.936;2023-09-07T11:52:22;15.80;;;7.00;;
82618;SDS011;72286;12.138;-68.936;2023-09-07T11:56:00;13.10;;;6.50;;
82618;SDS011;72286;12.138;-68.936;2023-09-07T11:59:38;17.30;;;6.90;;
82618;SDS011;72286;12.138;-68.936;2023-09-07T12:03:15;11.20;;;5.40;;
82618;SDS011;72286;12.138;-68.936;2023-09-07T12:06:54;12.50;;;6.90;;
82618;SDS011;72286;12.138;-68.936;2023-09-07T12:10:30;10.20;;;6.20;;
82618;SDS011;72286;12.138;-68.936;2023-09-07T12:14:09;16.40;;;6.80;;
82618;SDS011;72286;12.138;-68.936;2023-09-07T12:17:46;16.90;;;6.00;;
82618;SDS011;72286;12.138;-68.936;2023-09-07T12:21:24;15.00;;;5.90;;
82618;SDS011;72286;12.138;-68.936;2023-09-07T12:25:01;13.90;;;7.20;;
82618;SDS011;72286;12.138;-68.936;2023-09-07T12:28:39;18.90;;;7.90;;
82618;SDS011;72286;12.138;-68.936;2023-09-07T12:32:17;15.10;;;7.40;;
82618;SDS011;72286;12.138;-68.936;2023-09-07T12:35:55;12.80;;;5.90;;
82618;SDS011;72286;12.138;-68.936;2023-09-07T12:39:32;12.60;;;6.30;;
82618;SDS011;72286;12.138;-68.936;2023-09-07T12:43:10;16.20;;;7.70;;
82618;SDS011;72286;12.138;-68.936;2023-09-07T12:46:47;20.10;;;8.00;;
82618;SDS011;72286;12.138;-68.936;2023-09-07T12:50:26;16.60;;;7.50;;
82618;SDS011;72286;12.138;-68.936;2023-09-07T12:54:03;17.10;;;7.00;;
82618;SDS011;72286;12.138;-68.936;2023-09-07T12:57:41;13.80;;;7.60;;
82618;SDS011;72286;12.138;-68.936;2023-09-07T13:01:39;26.80;;;7.80;;
82618;SDS011;72286;12.138;-68.936;2023-09-07T13:04:57;16.10;;;7.20;;
82618;SDS011;72286;12.138;-68.936;2023-09-07T13:08:34;15.60;;;7.40;;
82618;SDS011;72286;12.138;-68.936;2023-09-07T13:12:13;11.50;;;6.30;;
82618;SDS011;72286;12.138;-68.936;2023-09-07T13:15:50;13.20;;;6.90;;
82618;SDS011;72286;12.138;-68.936;2023-09-07T13:19:28;16.60;;;7.00;;
82618;SDS011;72286;12.138;-68.936;2023-09-07T13:23:05;16.00;;;6.90;;
82618;SDS011;72286;12.138;-68.936;2023-09-07T13:26:46;14.60;;;6.20;;
82618;SDS011;72286;12.138;-68.936;2023-09-07T13:30:22;10.60;;;5.80;;
82618;SDS011;72286;12.138;-68.936;2023-09-07T13:34:01;18.90;;;6.20;;
82618;SDS011;72286;12.138;-68.936;2023-09-07T13:37:57;12.30;;;5.90;;
82618;SDS011;72286;12.138;-68.936;2023-09-07T13:41:16;15.70;;;6.30;;
82618;SDS011;72286;12.138;-68.936;2023-09-07T13:44:53;15.40;;;6.00;;
82618;SDS011;72286;12.138;-68.936;2023-09-07T13:48:32;11.60;;;5.20;;
82618;SDS011;72286;12.138;-68.936;2023-09-07T13:52:09;12.20;;;6.40;;
82618;SDS011;72286;12.138;-68.936;2023-09-07T13:55:47;18.40;;;6.90;;
82618;SDS011;72286;12.138;-68.936;2023-09-07T13:59:44;10.00;;;5.90;;
82618;SDS011;72286;12.138;-68.936;2023-09-07T14:03:03;15.30;;;6.30;;
82618;SDS011;72286;12.138;-68.936;2023-09-07T14:06:40;11.40;;;5.80;;
82618;SDS011;72286;12.138;-68.936;2023-09-07T14:10:18;15.90;;;6.00;;
82618;SDS011;72286;12.138;-68.936;2023-09-07T14:13:55;12.00;;;6.00;;
82618;SDS011;72286;12.138;-68.936;2023-09-07T14:17:33;11.20;;;5.80;;
82618;SDS011;72286;12.138;-68.936;2023-09-07T14:21:12;14.50;;;5.80;;
82618;SDS011;72286;12.138;-68.936;2023-09-07T14:24:51;15.90;;;6.20;;
82618;SDS011;72286;12.138;-68.936;2023-09-07T14:28:28;10.70;;;5.60;;
82618;SDS011;72286;12.138;-68.936;2023-09-07T14:32:06;11.90;;;5.70;;
82618;SDS011;72286;12.138;-68.936;2023-09-07T14:35:43;16.20;;;6.60;;
82618;SDS011;72286;12.138;-68.936;2023-09-07T14:39:21;12.50;;;6.20;;
82618;SDS011;72286;12.138;-68.936;2023-09-07T14:43:01;11.80;;;6.10;;
82618;SDS011;72286;12.138;-68.936;2023-09-07T14:46:39;8.50;;;5.20;;
82618;SDS011;72286;12.138;-68.936;2023-09-07T14:50:16;17.30;;;6.50;;
82618;SDS011;72286;12.138;-68.936;2023-09-07T14:53:54;12.30;;;5.20;;
82618;SDS011;72286;12.138;-68.936;2023-09-07T14:57:32;14.30;;;6.50;;
82618;SDS011;72286;12.138;-68.936;2023-09-07T15:01:11;10.80;;;5.80;;
82618;SDS011;72286;12.138;-68.936;2023-09-07T15:04:47;12.90;;;6.30;;
82618;SDS011;72286;12.138;-68.936;2023-09-07T15:08:26;10.00;;;6.30;;
82618;SDS011;72286;12.138;-68.936;2023-09-07T15:12:03;12.10;;;6.20;;
82618;SDS011;72286;12.138;-68.936;2023-09-07T15:15:41;11.60;;;6.50;;
82618;SDS011;72286;12.138;-68.936;2023-09-07T15:19:18;12.50;;;6.90;;
82618;SDS011;72286;12.138;-68.936;2023-09-07T15:22:56;12.10;;;5.40;;
82618;SDS011;72286;12.138;-68.936;2023-09-07T15:26:40;15.30;;;5.90;;
82618;SDS011;72286;12.138;-68.936;2023-09-07T15:30:18;17.00;;;7.20;;
82618;SDS011;72286;12.138;-68.936;2023-09-07T15:33:55;10.90;;;6.00;;
82618;SDS011;72286;12.138;-68.936;2023-09-07T15:37:34;13.00;;;6.00;;
82618;SDS011;72286;12.138;-68.936;2023-09-07T15:41:10;13.00;;;6.40;;
82618;SDS011;72286;12.138;-68.936;2023-09-07T15:44:49;12.00;;;6.30;;
82618;SDS011;72286;12.138;-68.936;2023-09-07T15:48:26;11.40;;;6.40;;
82618;SDS011;72286;12.138;-68.936;2023-09-07T15:52:04;10.80;;;5.90;;
82618;SDS011;72286;12.138;-68.936;2023-09-07T15:55:41;11.60;;;6.70;;
82618;SDS011;72286;12.138;-68.936;2023-09-07T15:59:19;13.80;;;6.10;;
82618;SDS011;72286;12.138;-68.936;2023-09-07T16:02:57;11.50;;;5.90;;
82618;SDS011;72286;12.138;-68.936;2023-09-07T16:06:36;17.70;;;7.30;;
82618;SDS011;72286;12.138;-68.936;2023-09-07T16:10:14;13.70;;;6.80;;
82618;SDS011;72286;12.138;-68.936;2023-09-07T16:13:54;12.00;;;5.40;;
82618;SDS011;72286;12.138;-68.936;2023-09-07T16:17:32;11.80;;;6.10;;
82618;SDS011;72286;12.138;-68.936;2023-09-07T16:21:13;12.50;;;6.90;;
82618;SDS011;72286;12.138;-68.936;2023-09-07T16:24:47;14.90;;;6.60;;
82618;SDS011;72286;12.138;-68.936;2023-09-07T16:28:25;13.90;;;7.00;;
82618;SDS011;72286;12.138;-68.936;2023-09-07T16:32:02;13.10;;;6.60;;
82618;SDS011;72286;12.138;-68.936;2023-09-07T16:35:40;12.30;;;6.00;;
82618;SDS011;72286;12.138;-68.936;2023-09-07T16:39:17;12.30;;;6.50;;
82618;SDS011;72286;12.138;-68.936;2023-09-07T16:42:56;12.70;;;6.50;;
82618;SDS011;72286;12.138;-68.936;2023-09-07T16:46:33;14.10;;;7.10;;
82618;SDS011;72286;12.138;-68.936;2023-09-07T16:50:11;10.20;;;6.40;;
82618;SDS011;72286;12.138;-68.936;2023-09-07T16:53:48;10.20;;;5.80;;
82618;SDS011;72286;12.138;-68.936;2023-09-07T16:57:27;14.60;;;6.50;;
82618;SDS011;72286;12.138;-68.936;2023-09-07T17:01:05;18.60;;;6.50;;
82618;SDS011;72286;12.138;-68.936;2023-09-07T17:04:43;11.90;;;6.30;;
82618;SDS011;72286;12.138;-68.936;2023-09-07T17:08:20;11.80;;;5.50;;
82618;SDS011;72286;12.138;-68.936;2023-09-07T17:11:59;9.60;;;4.90;;
82618;SDS011;72286;12.138;-68.936;2023-09-07T17:15:36;14.60;;;6.00;;
82618;SDS011;72286;12.138;-68.936;2023-09-07T17:19:14;13.50;;;6.70;;
82618;SDS011;72286;12.138;-68.936;2023-09-07T17:22:51;13.10;;;5.60;;
82618;SDS011;72286;12.138;-68.936;2023-09-07T17:26:29;11.20;;;6.00;;
82618;SDS011;72286;12.138;-68.936;2023-09-07T17:30:07;10.90;;;5.90;;
82618;SDS011;72286;12.138;-68.936;2023-09-07T17:33:48;10.30;;;5.70;;
82618;SDS011;72286;12.138;-68.936;2023-09-07T17:37:24;13.00;;;6.30;;
82618;SDS011;72286;12.138;-68.936;2023-09-07T17:41:02;8.10;;;4.30;;
82618;SDS011;72286;12.138;-68.936;2023-09-07T17:44:41;9.70;;;6.20;;
82618;SDS011;72286;12.138;-68.936;2023-09-07T17:48:19;11.20;;;6.40;;
82618;SDS011;72286;12.138;-68.936;2023-09-07T17:51:56;9.90;;;5.70;;
82618;SDS011;72286;12.138;-68.936;2023-09-07T17:55:34;10.60;;;5.90;;
82618;SDS011;72286;12.138;-68.936;2023-09-07T17:59:11;14.20;;;6.30;;
82618;SDS011;72286;12.138;-68.936;2023-09-07T18:02:57;11.10;;;6.30;;
82618;SDS011;72286;12.138;-68.936;2023-09-07T18:06:34;13.20;;;5.30;;
82618;SDS011;72286;12.138;-68.936;2023-09-07T18:10:12;11.70;;;5.60;;
82618;SDS011;72286;12.138;-68.936;2023-09-07T18:13:50;10.80;;;6.10;;
82618;SDS011;72286;12.138;-68.936;2023-09-07T18:17:28;13.60;;;6.20;;
82618;SDS011;72286;12.138;-68.936;2023-09-07T18:21:05;11.40;;;6.60;;
82618;SDS011;72286;12.138;-68.936;2023-09-07T18:24:43;11.60;;;5.80;;
82618;SDS011;72286;12.138;-68.936;2023-09-07T18:28:20;11.50;;;5.90;;
82618;SDS011;72286;12.138;-68.936;2023-09-07T18:31:59;15.90;;;6.30;;
82618;SDS011;72286;12.138;-68.936;2023-09-07T18:35:36;13.70;;;7.40;;
82618;SDS011;72286;12.138;-68.936;2023-09-07T18:39:14;10.60;;;6.10;;
82618;SDS011;72286;12.138;-68.936;2023-09-07T18:42:51;12.50;;;7.10;;
82618;SDS011;72286;12.138;-68.936;2023-09-07T18:46:29;15.30;;;7.40;;
82618;SDS011;72286;12.138;-68.936;2023-09-07T18:50:06;10.30;;;6.30;;
82618;SDS011;72286;12.138;-68.936;2023-09-07T18:53:45;12.30;;;6.70;;
82618;SDS011;72286;12.138;-68.936;2023-09-07T18:57:22;13.30;;;7.00;;
82618;SDS011;72286;12.138;-68.936;2023-09-07T19:01:05;15.90;;;7.00;;
82618;SDS011;72286;12.138;-68.936;2023-09-07T19:04:47;12.20;;;6.10;;
82618;SDS011;72286;12.138;-68.936;2023-09-07T19:08:26;12.90;;;7.20;;
82618;SDS011;72286;12.138;-68.936;2023-09-07T19:12:03;12.80;;;6.90;;
82618;SDS011;72286;12.138;-68.936;2023-09-07T19:15:42;10.30;;;6.70;;
82618;SDS011;72286;12.138;-68.936;2023-09-07T19:19:22;13.50;;;7.20;;
82618;SDS011;72286;12.138;-68.936;2023-09-07T19:23:00;13.10;;;5.80;;
82618;SDS011;72286;12.138;-68.936;2023-09-07T19:26:44;14.20;;;6.90;;
82618;SDS011;72286;12.138;-68.936;2023-09-07T19:30:16;12.10;;;6.00;;
82618;SDS011;72286;12.138;-68.936;2023-09-07T19:33:53;8.30;;;5.20;;
82618;SDS011;72286;12.138;-68.936;2023-09-07T19:37:31;13.00;;;6.70;;
82618;SDS011;72286;12.138;-68.936;2023-09-07T19:41:08;12.60;;;6.10;;
82618;SDS011;72286;12.138;-68.936;2023-09-07T19:44:47;15.10;;;6.10;;
82618;SDS011;72286;12.138;-68.936;2023-09-07T19:48:24;13.10;;;5.80;;
82618;SDS011;72286;12.138;-68.936;2023-09-07T19:52:02;13.30;;;6.50;;
82618;SDS011;72286;12.138;-68.936;2023-09-07T19:55:39;10.00;;;6.20;;
82618;SDS011;72286;12.138;-68.936;2023-09-07T19:59:18;11.10;;;5.60;;
82618;SDS011;72286;12.138;-68.936;2023-09-07T20:02:55;13.10;;;5.70;;
82618;SDS011;72286;12.138;-68.936;2023-09-07T20:06:33;9.90;;;6.50;;
82618;SDS011;72286;12.138;-68.936;2023-09-07T20:10:10;12.70;;;5.70;;
82618;SDS011;72286;12.138;-68.936;2023-09-07T20:13:48;10.00;;;5.60;;
82618;SDS011;72286;12.138;-68.936;2023-09-07T20:17:25;12.70;;;6.40;;
82618;SDS011;72286;12.138;-68.936;2023-09-07T20:21:04;8.80;;;5.20;;
82618;SDS011;72286;12.138;-68.936;2023-09-07T20:24:41;10.60;;;5.50;;
82618;SDS011;72286;12.138;-68.936;2023-09-07T20:28:20;12.90;;;5.90;;
82618;SDS011;72286;12.138;-68.936;2023-09-07T20:31:57;10.10;;;6.10;;
82618;SDS011;72286;12.138;-68.936;2023-09-07T20:35:35;13.00;;;6.80;;
82618;SDS011;72286;12.138;-68.936;2023-09-07T20:39:12;14.00;;;5.80;;
82618;SDS011;72286;12.138;-68.936;2023-09-07T20:42:50;11.00;;;6.50;;
82618;SDS011;72286;12.138;-68.936;2023-09-07T20:46:29;10.30;;;5.60;;
82618;SDS011;72286;12.138;-68.936;2023-09-07T20:50:07;12.10;;;6.10;;
82618;SDS011;72286;12.138;-68.936;2023-09-07T20:53:45;9.80;;;6.20;;
82618;SDS011;72286;12.138;-68.936;2023-09-07T20:57:43;16.60;;;5.90;;
82618;SDS011;72286;12.138;-68.936;2023-09-07T21:01:00;14.30;;;6.50;;
82618;SDS011;72286;12.138;-68.936;2023-09-07T21:04:40;15.30;;;5.70;;